Terminal Aerodrome Forecast
Issued by NWS

Home | Current Version | Previous Version | Text Only | Print | Product List | Glossary On
Versions: 1 2 3 4 5 6 7 8 9 10 11 12 13
057
FTUS43 KMPX 301751 CCA
TAFAXN
TAF COR
KAXN 301751Z 3018/3118 11012G20KT P6SM SCT030 BKN050
     FM310600 04005KT P6SM SCT015 SCT050=

USA.gov is the U.S. government's official web portal to all federal, state and local government web resources and services.